Time;durP1;ratioP1;P1;durP2;ratioP2;P2;SDS_P1;SDS_P2;PMS_P1;PMS_P2;Temp;Humidity;BMP_temperature;BMP_pressure;BME280_temperature;BME280_humidity;BME280_pressure;Samples;Min_cycle;Max_cycle;Signal;HPM_P1;HPM_P2
2021/11/25 00:00:35;;;;;;;13.13;7.53;;;4.40;99.90;;;;;;5007574;28;20804;-79
2021/11/25 00:03:08;;;;;;;10.13;8.70;;;4.50;99.90;;;;;;5024729;28;20460;-79
2021/11/25 00:05:38;;;;;;;8.57;6.70;;;4.50;99.90;;;;;;5024754;28;20419;-79
2021/11/25 00:08:06;;;;;;;12.87;8.30;;;4.30;99.90;;;;;;5031604;28;20392;-80
2021/11/25 00:10:33;;;;;;;11.57;7.93;;;4.40;99.90;;;;;;5050193;28;20768;-80
2021/11/25 00:12:59;;;;;;;10.33;7.53;;;4.30;99.90;;;;;;5066410;28;20485;-79
2021/11/25 00:15:26;;;;;;;10.23;7.27;;;4.40;99.90;;;;;;5033437;28;20472;-80
2021/11/25 00:17:52;;;;;;;9.90;6.87;;;4.30;99.90;;;;;;5027437;28;20947;-79
2021/11/25 00:20:20;;;;;;;10.03;9.00;;;4.30;99.90;;;;;;5028368;28;20480;-80
2021/11/25 00:22:47;;;;;;;8.97;7.07;;;4.40;99.90;;;;;;5044914;28;20480;-80
2021/11/25 00:25:13;;;;;;;6.80;6.10;;;4.50;99.90;;;;;;5046874;28;20381;-79
2021/11/25 00:27:42;;;;;;;9.37;6.40;;;4.20;99.90;;;;;;5041045;28;20402;-77
2021/11/25 00:30:11;;;;;;;13.53;7.27;;;4.10;99.90;;;;;;5030933;28;20400;-79
2021/11/25 00:32:40;;;;;;;14.00;7.53;;;4.20;99.90;;;;;;5044904;28;20473;-80
2021/11/25 00:35:09;;;;;;;10.30;6.37;;;4.20;99.90;;;;;;5045742;28;20363;-79
2021/11/25 00:37:37;;;;;;;8.17;6.43;;;4.20;99.90;;;;;;5030986;28;20393;-80
2021/11/25 00:40:06;;;;;;;9.10;5.90;;;4.10;99.90;;;;;;5030231;28;20382;-80
2021/11/25 00:42:32;;;;;;;9.10;8.00;;;4.20;99.90;;;;;;5026805;28;20393;-80
2021/11/25 00:44:58;;;;;;;14.57;7.67;;;4.10;99.90;;;;;;5043614;28;20880;-80
2021/11/25 00:47:24;;;;;;;11.50;7.00;;;4.30;99.90;;;;;;4987862;28;20388;-79
2021/11/25 00:49:53;;;;;;;11.23;7.30;;;4.30;99.90;;;;;;5006312;28;20316;-80
2021/11/25 00:52:19;;;;;;;11.00;6.63;;;4.30;99.90;;;;;;5022700;28;20447;-80
2021/11/25 00:54:45;;;;;;;8.80;6.60;;;4.20;99.90;;;;;;5024209;28;20279;-80
2021/11/25 00:57:11;;;;;;;13.47;9.83;;;4.30;99.90;;;;;;4988260;28;20416;-80
2021/11/25 00:59:37;;;;;;;12.97;8.80;;;4.20;99.90;;;;;;4988025;28;20248;-79
2021/11/25 01:02:04;;;;;;;13.07;8.17;;;4.10;99.90;;;;;;4971547;28;20417;-80
2021/11/25 01:04:34;;;;;;;13.57;7.87;;;4.10;99.90;;;;;;4986716;28;20245;-80
2021/11/25 01:07:00;;;;;;;9.43;7.83;;;4.00;99.90;;;;;;4931335;29;20563;-79
2021/11/25 01:09:25;;;;;;;9.87;7.80;;;4.10;99.90;;;;;;4949468;29;20415;-80
2021/11/25 01:11:57;;;;;;;7.93;6.33;;;4.20;99.90;;;;;;4932624;29;20741;-80
2021/11/25 01:14:28;;;;;;;12.90;8.03;;;4.30;99.90;;;;;;4950112;29;20163;-80
2021/11/25 01:16:54;;;;;;;11.53;7.23;;;4.00;99.90;;;;;;4927017;29;20421;-79
2021/11/25 01:19:19;;;;;;;13.17;7.90;;;3.90;99.90;;;;;;4890349;29;20432;-79
2021/11/25 01:21:48;;;;;;;7.77;5.80;;;3.90;99.90;;;;;;4910824;29;20215;-80
2021/11/25 01:24:17;;;;;;;17.60;7.93;;;3.90;99.90;;;;;;4911009;29;20416;-80
2021/11/25 01:26:44;;;;;;;10.33;7.80;;;3.90;99.90;;;;;;4894687;29;20392;-80
2021/11/25 01:29:11;;;;;;;11.90;8.03;;;4.00;99.90;;;;;;4912337;29;20418;-80
2021/11/25 01:31:38;;;;;;;12.17;7.23;;;4.10;99.90;;;;;;4929274;29;20473;-80
2021/11/25 01:34:06;;;;;;;10.50;6.87;;;4.00;99.90;;;;;;4930217;29;20531;-77
2021/11/25 01:36:53;;;;;;;10.20;7.10;;;3.90;99.90;;;;;;4932255;29;20428;-80
2021/11/25 01:39:21;;;;;;;14.20;7.77;;;3.90;99.90;;;;;;4933730;29;20442;-80
2021/11/25 01:41:48;;;;;;;8.73;5.40;;;3.90;99.90;;;;;;4930454;29;20912;-80
2021/11/25 01:44:20;;;;;;;20.40;7.77;;;4.00;99.90;;;;;;4918127;29;20404;-80
2021/11/25 01:46:46;;;;;;;8.20;6.80;;;4.10;99.90;;;;;;4918914;28;20387;-80
2021/11/25 01:49:12;;;;;;;12.53;8.07;;;4.10;99.90;;;;;;4953589;28;20474;-80
2021/11/25 01:51:41;;;;;;;9.80;6.13;;;4.10;99.90;;;;;;5008855;28;20435;-80
2021/11/25 01:54:08;;;;;;;9.87;7.03;;;4.10;99.90;;;;;;5008440;28;20420;-80
2021/11/25 01:56:56;;;;;;;10.40;7.97;;;4.10;99.90;;;;;;5008758;28;20181;-79
2021/11/25 01:59:22;;;;;;;19.57;8.80;;;4.00;99.90;;;;;;4969591;28;20490;-80
2021/11/25 02:01:52;;;;;;;13.73;8.87;;;4.00;99.90;;;;;;4969819;28;20404;-79
2021/11/25 02:04:17;;;;;;;17.77;10.30;;;4.10;99.90;;;;;;4984434;28;20429;-80
2021/11/25 02:06:43;;;;;;;16.30;8.57;;;3.90;99.90;;;;;;4967821;28;20393;-80
2021/11/25 02:09:13;;;;;;;10.33;7.50;;;4.10;99.90;;;;;;4982956;28;20820;-80
2021/11/25 02:11:40;;;;;;;15.27;9.00;;;4.10;99.90;;;;;;4967029;28;20780;-80
2021/11/25 02:14:10;;;;;;;13.17;7.93;;;3.90;99.90;;;;;;4987304;28;20423;-79
2021/11/25 02:16:37;;;;;;;12.23;7.47;;;3.90;99.90;;;;;;5008556;28;20428;-79
2021/11/25 02:19:03;;;;;;;11.53;8.70;;;3.90;99.90;;;;;;5009777;28;20386;-80
2021/11/25 02:21:30;;;;;;;15.17;9.07;;;3.90;99.90;;;;;;5068323;28;20569;-79
2021/11/25 02:23:56;;;;;;;15.73;8.50;;;3.90;99.90;;;;;;5084241;28;20415;-80
2021/11/25 02:26:22;;;;;;;13.60;8.53;;;4.00;99.90;;;;;;5052525;28;20458;-80
2021/11/25 02:28:48;;;;;;;11.00;7.43;;;3.90;99.90;;;;;;5044904;28;20382;-79
2021/11/25 02:31:14;;;;;;;13.17;7.90;;;3.60;99.90;;;;;;5027816;28;20423;-79
2021/11/25 02:33:41;;;;;;;15.53;9.33;;;3.70;99.90;;;;;;5011926;28;20469;-80
2021/11/25 02:36:09;;;;;;;11.23;7.30;;;3.90;99.90;;;;;;5011370;28;20184;-80
2021/11/25 02:38:35;;;;;;;15.37;9.97;;;4.00;99.90;;;;;;4995116;28;20390;-79
2021/11/25 02:41:03;;;;;;;15.40;9.57;;;3.90;99.90;;;;;;5027427;28;20414;-79
2021/11/25 02:43:33;;;;;;;17.40;8.77;;;4.10;99.90;;;;;;5011342;28;20419;-80
2021/11/25 02:46:03;;;;;;;10.70;8.30;;;4.00;99.90;;;;;;5008671;28;20469;-80
2021/11/25 02:48:31;;;;;;;14.00;9.83;;;4.00;99.90;;;;;;4965983;28;20440;-80
2021/11/25 02:51:01;;;;;;;15.33;8.40;;;4.00;99.90;;;;;;4958292;28;20414;-79
2021/11/25 02:53:31;;;;;;;15.00;9.30;;;3.80;99.90;;;;;;4972738;28;20410;-79
2021/11/25 02:56:02;;;;;;;12.47;8.57;;;3.60;99.90;;;;;;4972745;28;20380;-79
2021/11/25 02:58:28;;;;;;;13.00;8.17;;;3.90;99.90;;;;;;4929895;29;20440;-79
2021/11/25 03:00:59;;;;;;;13.33;8.83;;;4.00;99.90;;;;;;4986298;28;20584;-80
2021/11/25 03:03:25;;;;;;;12.30;7.07;;;3.70;99.90;;;;;;4949141;29;20386;-79
2021/11/25 03:05:53;;;;;;;16.83;9.00;;;3.80;99.90;;;;;;4949019;29;20422;-80
2021/11/25 03:08:23;;;;;;;14.50;9.33;;;3.90;99.90;;;;;;4932803;29;20746;-80
2021/11/25 03:10:52;;;;;;;16.73;9.77;;;3.80;99.90;;;;;;4932850;29;20578;-80
2021/11/25 03:13:22;;;;;;;12.73;9.13;;;3.70;99.90;;;;;;4918125;29;20504;-79
2021/11/25 03:15:50;;;;;;;7.87;7.00;;;3.80;99.90;;;;;;4910801;29;20392;-80
2021/11/25 03:18:16;;;;;;;13.80;8.10;;;3.80;99.90;;;;;;4911918;29;20421;-80
2021/11/25 03:20:47;;;;;;;15.10;9.30;;;4.00;99.90;;;;;;4959387;29;20453;-79
2021/11/25 03:23:15;;;;;;;13.63;8.43;;;4.10;99.90;;;;;;4967884;29;20906;-79
2021/11/25 03:25:44;;;;;;;12.60;8.97;;;4.20;99.90;;;;;;4966992;29;20394;-79
2021/11/25 03:28:11;;;;;;;17.30;9.60;;;4.00;99.90;;;;;;4949732;29;20807;-80
2021/11/25 03:30:37;;;;;;;13.53;9.10;;;3.90;99.90;;;;;;4947141;29;20441;-80
2021/11/25 03:33:05;;;;;;;15.10;8.90;;;3.90;99.90;;;;;;4946068;29;20463;-79
2021/11/25 03:35:31;;;;;;;13.70;9.90;;;3.60;99.90;;;;;;4975829;28;20873;-79
2021/11/25 03:37:58;;;;;;;15.83;8.80;;;3.70;99.90;;;;;;5004235;28;20387;-79
2021/11/25 03:40:27;;;;;;;16.83;9.23;;;3.60;99.90;;;;;;4984851;28;20502;-80
2021/11/25 03:42:53;;;;;;;15.07;8.97;;;3.60;99.90;;;;;;4968751;28;20758;-79
2021/11/25 03:45:21;;;;;;;13.43;8.00;;;3.50;99.90;;;;;;5004003;28;20415;-79
2021/11/25 03:48:08;;;;;;;15.70;9.60;;;3.40;99.90;;;;;;5007462;28;20423;-79
2021/11/25 03:50:36;;;;;;;14.60;9.90;;;3.50;99.90;;;;;;5030601;28;20414;-80
2021/11/25 03:53:03;;;;;;;13.40;8.27;;;3.80;99.90;;;;;;5022848;28;20501;-80
2021/11/25 03:55:30;;;;;;;16.77;9.73;;;3.80;99.90;;;;;;5023442;28;20378;-79
2021/11/25 03:57:56;;;;;;;12.17;8.47;;;3.70;99.90;;;;;;5022929;28;20385;-80
2021/11/25 04:00:23;;;;;;;18.60;9.00;;;3.70;99.90;;;;;;5039627;28;20415;-80
2021/11/25 04:02:52;;;;;;;17.57;9.00;;;3.60;99.90;;;;;;5024190;28;20410;-80
2021/11/25 04:05:19;;;;;;;18.23;11.70;;;3.60;99.90;;;;;;5045520;28;20504;-80
2021/11/25 04:07:45;;;;;;;12.17;10.53;;;3.80;99.90;;;;;;5045984;28;20401;-79
2021/11/25 04:10:13;;;;;;;16.90;10.60;;;3.90;99.90;;;;;;5028847;28;20459;-80
2021/11/25 04:12:39;;;;;;;19.87;11.13;;;3.80;99.90;;;;;;5020785;28;20288;-79
2021/11/25 04:15:11;;;;;;;19.77;11.67;;;3.90;99.90;;;;;;5042002;28;20422;-80
2021/11/25 04:17:37;;;;;;;16.60;8.30;;;3.90;99.90;;;;;;5026557;28;20386;-80
2021/11/25 04:20:10;;;;;;;14.23;8.57;;;3.80;99.90;;;;;;5014639;28;20399;-80
2021/11/25 04:22:36;;;;;;;16.73;9.63;;;3.50;99.90;;;;;;5025514;28;20406;-79
2021/11/25 04:25:05;;;;;;;14.83;9.80;;;3.40;99.90;;;;;;5043603;28;20457;-79
2021/11/25 04:27:31;;;;;;;15.93;9.93;;;3.40;99.90;;;;;;5029422;28;20390;-80
2021/11/25 04:30:23;;;;;;;17.73;8.93;;;3.50;99.90;;;;;;5038911;28;20409;-77
2021/11/25 04:35:34;;;;;;;13.93;9.63;;;3.30;99.90;;;;;;5201026;22;20514;-77
2021/11/25 04:38:16;;;;;;;20.00;9.63;;;3.30;99.90;;;;;;5103250;28;20369;-77
2021/11/25 04:40:50;;;;;;;25.43;12.27;;;3.30;99.90;;;;;;5074376;28;20384;-80
2021/11/25 04:43:18;;;;;;;14.73;9.27;;;3.40;99.90;;;;;;5074316;28;20489;-80
2021/11/25 04:45:47;;;;;;;14.43;9.97;;;3.30;99.90;;;;;;5088871;28;20417;-80
2021/11/25 04:48:16;;;;;;;19.53;11.80;;;3.30;99.90;;;;;;5040169;28;20412;-80
2021/11/25 04:50:43;;;;;;;17.13;10.13;;;3.40;99.90;;;;;;5051975;28;20400;-80
2021/11/25 04:53:11;;;;;;;17.70;10.00;;;3.40;99.90;;;;;;5047910;28;20525;-79
2021/11/25 04:55:37;;;;;;;17.27;11.60;;;3.50;99.90;;;;;;5000089;28;20474;-79
2021/11/25 04:58:03;;;;;;;15.70;9.63;;;3.50;99.90;;;;;;5026352;28;20397;-79
2021/11/25 05:00:30;;;;;;;21.10;12.77;;;3.60;99.90;;;;;;4995511;28;20411;-79
2021/11/25 05:03:04;;;;;;;22.13;13.00;;;3.50;99.90;;;;;;5012530;28;20472;-80
2021/11/25 05:05:31;;;;;;;23.47;11.30;;;3.60;99.90;;;;;;4957106;28;20477;-80
2021/11/25 05:07:57;;;;;;;14.63;9.07;;;3.30;99.90;;;;;;4974120;28;20581;-80
2021/11/25 05:10:25;;;;;;;19.50;11.53;;;3.40;99.90;;;;;;4975988;28;20403;-79
2021/11/25 05:12:54;;;;;;;16.80;10.20;;;3.20;99.90;;;;;;4959144;28;20511;-79
2021/11/25 05:15:20;;;;;;;20.37;11.07;;;3.40;99.90;;;;;;4974100;28;20189;-79
2021/11/25 05:18:07;;;;;;;20.67;10.77;;;3.40;99.90;;;;;;4986781;28;20385;-79
2021/11/25 05:20:33;;;;;;;15.33;10.20;;;3.10;99.90;;;;;;4926893;29;20424;-79
2021/11/25 05:23:00;;;;;;;18.93;11.67;;;3.20;99.90;;;;;;4926444;29;20492;-79
2021/11/25 05:25:27;;;;;;;21.90;10.10;;;3.40;99.90;;;;;;4907222;29;20496;-79
2021/11/25 05:27:53;;;;;;;17.73;10.70;;;3.40;99.90;;;;;;4891385;29;20393;-79
2021/11/25 05:30:20;;;;;;;20.27;11.53;;;3.40;99.90;;;;;;4892327;29;20406;-79
2021/11/25 05:32:48;;;;;;;18.13;12.00;;;3.50;99.90;;;;;;4926266;29;20430;-79
2021/11/25 05:35:18;;;;;;;21.73;13.10;;;3.50;99.90;;;;;;4908071;29;20489;-79
2021/11/25 05:37:48;;;;;;;30.90;11.70;;;3.40;99.90;;;;;;4961168;29;20378;-79
2021/11/25 05:40:15;;;;;;;18.20;9.87;;;3.40;99.90;;;;;;4963872;29;20968;-79
2021/11/25 05:42:42;;;;;;;18.30;11.57;;;3.50;99.90;;;;;;4964382;29;20397;-79
2021/11/25 05:45:10;;;;;;;19.47;12.03;;;3.70;99.90;;;;;;4948646;29;20393;-78
2021/11/25 05:47:41;;;;;;;21.40;10.27;;;3.60;99.90;;;;;;4948248;29;20391;-78
2021/11/25 05:50:11;;;;;;;21.13;12.80;;;3.40;99.90;;;;;;4948787;29;20427;-79
2021/11/25 05:52:40;;;;;;;20.60;13.00;;;3.60;99.90;;;;;;4950073;29;20413;-79
2021/11/25 05:55:09;;;;;;;19.47;9.97;;;3.50;99.90;;;;;;4930741;29;20785;-79
2021/11/25 05:57:35;;;;;;;22.60;12.50;;;3.60;99.90;;;;;;4942680;29;20506;-79
2021/11/25 06:00:01;;;;;;;18.00;11.87;;;3.40;99.90;;;;;;4949903;29;20397;-79
2021/11/25 06:02:27;;;;;;;15.57;11.30;;;3.50;99.90;;;;;;4943053;29;20422;-79
2021/11/25 06:04:52;;;;;;;15.43;11.30;;;3.40;99.90;;;;;;4968324;28;20393;-79
2021/11/25 06:07:21;;;;;;;21.93;12.40;;;3.30;99.90;;;;;;5011500;28;20555;-79
2021/11/25 06:09:49;;;;;;;16.70;11.97;;;3.50;99.90;;;;;;4993782;28;20477;-79
2021/11/25 06:12:18;;;;;;;20.80;12.63;;;3.70;99.90;;;;;;5024810;28;20890;-79
2021/11/25 06:14:44;;;;;;;15.90;10.50;;;3.60;99.90;;;;;;4991252;28;20456;-79
2021/11/25 06:17:11;;;;;;;17.33;11.07;;;3.50;99.90;;;;;;4953235;28;20183;-79
2021/11/25 06:19:37;;;;;;;20.53;13.00;;;3.60;99.90;;;;;;4977126;28;20250;-77
2021/11/25 06:22:03;;;;;;;21.30;11.00;;;3.60;99.90;;;;;;4972642;29;20571;-79
2021/11/25 06:24:29;;;;;;;23.40;12.67;;;3.70;99.90;;;;;;4957728;28;20274;-79
2021/11/25 06:26:55;;;;;;;18.50;11.17;;;3.80;99.90;;;;;;4972710;28;20827;-79
2021/11/25 06:29:22;;;;;;;23.23;11.83;;;3.80;99.90;;;;;;4983161;28;20193;-79
2021/11/25 06:31:47;;;;;;;19.57;11.70;;;3.80;99.90;;;;;;5022614;28;20213;-79
2021/11/25 06:34:14;;;;;;;26.30;11.70;;;3.40;99.90;;;;;;5030920;28;20439;-79
2021/11/25 06:36:40;;;;;;;18.20;11.73;;;3.50;99.90;;;;;;4999805;28;20646;-78
2021/11/25 06:39:08;;;;;;;21.57;11.63;;;3.50;99.90;;;;;;5020714;28;20403;-78
2021/11/25 06:41:37;;;;;;;22.87;10.80;;;3.80;99.90;;;;;;4985951;28;20407;-78
2021/11/25 06:44:03;;;;;;;15.67;12.97;;;3.90;99.90;;;;;;4982732;28;20399;-78
2021/11/25 06:46:29;;;;;;;15.10;11.23;;;3.70;99.90;;;;;;4962554;28;20805;-78
2021/11/25 06:48:59;;;;;;;23.10;13.40;;;3.80;99.90;;;;;;4956573;28;20401;-78
2021/11/25 06:51:27;;;;;;;18.13;11.60;;;3.50;99.90;;;;;;4987612;28;20454;-78
2021/11/25 06:53:53;;;;;;;17.37;10.93;;;3.40;99.90;;;;;;4981840;28;20454;-78
2021/11/25 06:56:21;;;;;;;20.10;11.07;;;3.10;99.90;;;;;;4983375;28;20478;-79
2021/11/25 06:58:52;;;;;;;13.90;9.50;;;3.20;99.90;;;;;;4982288;28;20444;-79
2021/11/25 07:01:18;;;;;;;26.87;10.80;;;3.50;99.90;;;;;;4965788;28;20397;-78
2021/11/25 07:03:44;;;;;;;25.00;13.10;;;3.50;99.90;;;;;;4970999;28;20472;-78
2021/11/25 07:06:17;;;;;;;20.97;13.20;;;3.50;99.90;;;;;;4987255;28;20392;-79
2021/11/25 07:08:42;;;;;;;17.47;12.80;;;3.30;99.90;;;;;;4986788;28;20410;-78
2021/11/25 07:11:11;;;;;;;20.20;12.53;;;3.40;99.90;;;;;;5001786;28;20398;-78
2021/11/25 07:13:39;;;;;;;22.40;11.13;;;3.40;99.90;;;;;;4979355;28;20400;-79
2021/11/25 07:16:05;;;;;;;17.97;12.03;;;3.60;99.90;;;;;;4969568;28;20199;-78
2021/11/25 07:18:34;;;;;;;25.30;12.30;;;3.70;99.90;;;;;;5016200;28;20481;-78
2021/11/25 07:21:00;;;;;;;19.27;11.90;;;3.90;99.90;;;;;;5022949;28;20448;-78
2021/11/25 07:23:26;;;;;;;20.13;10.70;;;3.70;99.90;;;;;;5006186;28;20794;-78
2021/11/25 07:25:53;;;;;;;17.63;10.30;;;3.60;99.90;;;;;;5026888;28;20472;-78
2021/11/25 07:28:21;;;;;;;17.37;12.10;;;3.50;99.90;;;;;;4981370;28;20313;-78
2021/11/25 07:30:49;;;;;;;19.13;12.23;;;3.40;99.90;;;;;;4983361;28;20408;-79
2021/11/25 07:33:15;;;;;;;26.10;13.57;;;3.40;99.90;;;;;;4982850;28;20473;-78
2021/11/25 07:35:46;;;;;;;24.97;14.67;;;3.80;99.90;;;;;;4984085;28;20447;-79
2021/11/25 07:38:16;;;;;;;21.83;14.87;;;3.70;99.90;;;;;;4982746;28;20445;-78
2021/11/25 07:40:44;;;;;;;19.33;12.13;;;3.50;99.90;;;;;;4970099;28;20402;-79
2021/11/25 07:43:16;;;;;;;17.30;11.07;;;3.50;99.90;;;;;;4950112;28;20492;-78
2021/11/25 07:45:43;;;;;;;28.23;14.07;;;3.50;99.90;;;;;;4985031;28;20914;-79
2021/11/25 07:48:08;;;;;;;22.73;14.70;;;3.50;99.90;;;;;;4992903;28;20450;-80
2021/11/25 07:50:38;;;;;;;13.43;10.80;;;3.30;99.90;;;;;;4991036;28;20445;-80
2021/11/25 07:53:08;;;;;;;19.87;11.07;;;3.20;99.90;;;;;;4976471;28;20251;-79
2021/11/25 07:55:39;;;;;;;23.70;12.50;;;3.20;99.90;;;;;;5009695;28;20535;-80
2021/11/25 07:58:07;;;;;;;24.67;14.80;;;3.20;99.90;;;;;;4967109;28;20414;-79
2021/11/25 08:00:33;;;;;;;25.80;12.50;;;3.30;99.90;;;;;;5047607;28;20419;-79
2021/11/25 08:02:59;;;;;;;23.87;13.57;;;3.50;99.90;;;;;;5024635;28;20425;-80
2021/11/25 08:05:26;;;;;;;18.43;11.17;;;3.40;99.90;;;;;;5041400;28;20496;-81
2021/11/25 08:07:54;;;;;;;20.27;13.07;;;3.10;99.90;;;;;;5041780;28;20434;-80
2021/11/25 08:10:22;;;;;;;18.93;11.47;;;3.20;99.90;;;;;;5052527;28;20429;-80
2021/11/25 08:12:48;;;;;;;19.00;13.37;;;3.00;99.90;;;;;;5058240;28;20495;-80
2021/11/25 08:15:14;;;;;;;15.10;10.60;;;3.00;99.90;;;;;;5054565;28;20409;-81
2021/11/25 08:17:41;;;;;;;29.30;15.30;;;3.20;99.90;;;;;;5032673;28;20431;-82
2021/11/25 08:20:09;;;;;;;20.37;12.53;;;3.60;99.90;;;;;;5036848;28;20184;-81
2021/11/25 08:22:35;;;;;;;25.57;13.77;;;3.50;99.90;;;;;;5045923;28;20477;-81
2021/11/25 08:25:02;;;;;;;18.13;11.70;;;3.40;99.90;;;;;;5058723;28;20404;-79
2021/11/25 08:27:28;;;;;;;21.40;13.00;;;3.60;99.90;;;;;;5051513;28;20443;-81
2021/11/25 08:29:54;;;;;;;24.83;14.50;;;3.40;99.90;;;;;;5035374;28;20417;-81
2021/11/25 08:32:20;;;;;;;23.77;13.90;;;3.30;99.90;;;;;;5024467;28;20441;-81
2021/11/25 08:34:46;;;;;;;28.17;15.00;;;3.30;99.90;;;;;;5035545;28;20219;-81
2021/11/25 08:37:12;;;;;;;23.73;15.53;;;3.40;99.90;;;;;;5024385;28;20428;-81
2021/11/25 08:39:38;;;;;;;27.03;14.50;;;3.40;99.90;;;;;;5042773;28;20177;-81
2021/11/25 08:42:05;;;;;;;26.67;12.80;;;3.60;99.90;;;;;;5037354;28;20664;-81
2021/11/25 08:44:32;;;;;;;20.47;12.83;;;3.80;99.90;;;;;;5065394;28;20180;-81
2021/11/25 08:46:58;;;;;;;18.37;12.67;;;3.60;99.90;;;;;;5031605;28;20553;-81
2021/11/25 08:49:24;;;;;;;20.70;13.47;;;3.70;99.90;;;;;;5037555;28;20524;-81
2021/11/25 08:51:50;;;;;;;26.63;13.43;;;3.70;99.90;;;;;;5047211;28;20548;-80
2021/11/25 08:54:17;;;;;;;25.20;13.67;;;4.00;99.90;;;;;;5091229;28;20183;-81
2021/11/25 08:56:43;;;;;;;21.47;12.10;;;4.10;99.90;;;;;;5070327;28;20411;-81
2021/11/25 08:59:10;;;;;;;21.50;12.00;;;4.20;99.90;;;;;;5072237;28;20454;-80
2021/11/25 09:01:38;;;;;;;19.33;12.73;;;3.80;99.90;;;;;;5049282;28;20433;-80
2021/11/25 09:04:04;;;;;;;20.43;11.90;;;3.50;99.90;;;;;;5075684;28;20406;-79
2021/11/25 09:06:30;;;;;;;22.40;13.03;;;3.60;99.90;;;;;;5025743;28;20417;-80
2021/11/25 09:08:58;;;;;;;29.83;15.17;;;3.50;99.90;;;;;;5022140;28;20226;-79
2021/11/25 09:11:26;;;;;;;19.77;12.70;;;3.40;99.90;;;;;;5022787;28;20442;-79
2021/11/25 09:13:52;;;;;;;19.13;12.87;;;3.40;99.90;;;;;;4964551;28;20424;-79
2021/11/25 09:16:21;;;;;;;24.70;15.80;;;3.60;99.90;;;;;;4973270;28;20404;-80
2021/11/25 09:18:56;;;;;;;23.80;14.23;;;3.60;99.90;;;;;;4939526;28;20412;-80
2021/11/25 09:21:27;;;;;;;24.53;13.60;;;3.40;99.90;;;;;;4977654;28;20477;-78
2021/11/25 09:23:53;;;;;;;28.00;14.80;;;3.30;99.90;;;;;;4934637;28;20400;-80
2021/11/25 09:26:20;;;;;;;26.70;14.60;;;3.40;99.90;;;;;;4988129;28;20412;-79
2021/11/25 09:28:46;;;;;;;25.17;14.57;;;3.60;99.90;;;;;;4976237;28;20194;-80
2021/11/25 09:31:15;;;;;;;22.80;14.00;;;3.60;99.90;;;;;;4979957;28;20451;-80
2021/11/25 09:33:42;;;;;;;19.17;13.37;;;3.70;99.90;;;;;;4984994;28;20459;-79
2021/11/25 09:36:11;;;;;;;34.17;16.47;;;4.00;99.90;;;;;;4977654;28;20428;-80
2021/11/25 09:38:37;;;;;;;25.23;14.77;;;4.10;99.90;;;;;;5024582;28;20409;-80
2021/11/25 09:41:03;;;;;;;18.75;11.80;;;4.30;99.90;;;;;;5029184;28;20466;-80
2021/11/25 09:43:29;;;;;;;19.87;13.87;;;4.10;99.90;;;;;;5019733;28;20239;-80
2021/11/25 09:45:55;;;;;;;19.80;13.43;;;4.00;99.90;;;;;;5061213;28;20446;-80
2021/11/25 09:48:25;;;;;;;28.93;15.13;;;4.00;99.90;;;;;;5056588;28;20473;-80
2021/11/25 09:50:54;;;;;;;21.67;13.60;;;3.80;99.90;;;;;;5052364;28;20447;-80
2021/11/25 09:53:23;;;;;;;28.63;14.30;;;3.80;99.90;;;;;;5061465;28;20449;-79
2021/11/25 09:55:51;;;;;;;26.00;13.80;;;3.50;99.90;;;;;;5030768;28;20541;-80
2021/11/25 09:58:20;;;;;;;31.53;17.83;;;3.60;99.90;;;;;;5047443;28;20404;-80
2021/11/25 10:00:50;;;;;;;22.30;13.53;;;3.50;99.90;;;;;;5085804;28;20433;-80
2021/11/25 10:03:17;;;;;;;27.40;13.93;;;3.50;99.90;;;;;;5078629;28;20403;-79
2021/11/25 10:05:48;;;;;;;23.90;11.37;;;3.70;99.90;;;;;;5053704;28;20408;-80
2021/11/25 10:08:35;;;;;;;22.93;13.17;;;3.70;99.90;;;;;;5061656;28;20415;-80
2021/11/25 10:11:09;;;;;;;26.00;14.90;;;4.00;99.90;;;;;;5073364;28;20510;-80
2021/11/25 10:13:46;;;;;;;32.17;13.23;;;3.50;99.90;;;;;;5009508;28;20439;-81
2021/11/25 10:16:17;;;;;;;21.63;13.40;;;3.90;99.90;;;;;;5029664;28;20467;-81
2021/11/25 10:18:44;;;;;;;23.10;13.17;;;4.00;99.90;;;;;;5015036;28;20418;-81
2021/11/25 10:21:15;;;;;;;39.37;19.37;;;3.90;99.90;;;;;;5019456;28;20945;-80
2021/11/25 10:23:43;;;;;;;26.57;13.10;;;4.10;99.90;;;;;;5029557;28;20499;-80
2021/11/25 10:26:13;;;;;;;25.37;16.50;;;4.10;99.90;;;;;;5014743;28;20447;-80
2021/11/25 10:28:57;;;;;;;28.03;14.83;;;4.10;99.90;;;;;;5026040;28;20417;-78
2021/11/25 10:31:25;;;;;;;26.10;13.87;;;4.30;99.90;;;;;;4986436;28;20471;-81
2021/11/25 10:33:57;;;;;;;26.60;15.33;;;4.40;99.90;;;;;;4964770;28;20409;-79
2021/11/25 10:36:32;;;;;;;22.13;11.83;;;4.60;99.90;;;;;;4981516;28;20468;-80
2021/11/25 10:39:08;;;;;;;26.77;13.80;;;4.60;99.90;;;;;;4981066;28;20452;-80
2021/11/25 10:41:37;;;;;;;21.13;12.30;;;4.60;99.90;;;;;;4973875;28;20461;-81
2021/11/25 10:44:15;;;;;;;22.37;13.53;;;4.70;99.90;;;;;;4948738;28;20507;-79
2021/11/25 10:46:52;;;;;;;26.90;13.47;;;4.70;99.90;;;;;;4949680;28;20705;-80
2021/11/25 10:49:31;;;;;;;27.43;12.40;;;4.40;99.90;;;;;;4964980;28;20509;-79
2021/11/25 10:51:58;;;;;;;19.07;11.83;;;4.20;99.90;;;;;;4995774;28;20458;-79
2021/11/25 10:54:24;;;;;;;28.60;13.43;;;4.40;99.90;;;;;;5020054;28;20554;-79
2021/11/25 10:56:53;;;;;;;27.30;13.93;;;4.50;99.90;;;;;;4987333;28;20443;-79
2021/11/25 10:59:35;;;;;;;27.10;12.83;;;4.60;99.90;;;;;;4993746;28;20411;-80
2021/11/25 11:02:02;;;;;;;20.13;11.13;;;4.70;99.90;;;;;;4967580;28;20449;-79
2021/11/25 11:04:29;;;;;;;19.07;10.90;;;4.70;99.90;;;;;;5061866;28;20921;-80
2021/11/25 11:06:56;;;;;;;19.90;11.83;;;4.70;99.90;;;;;;5058810;28;20404;-79
2021/11/25 11:09:34;;;;;;;27.53;14.60;;;4.70;99.90;;;;;;5029966;28;20416;-80
2021/11/25 11:12:21;;;;;;;32.43;15.03;;;4.70;99.90;;;;;;5052736;28;20491;-80
2021/11/25 11:15:12;;;;;;;14.63;9.97;;;4.70;99.90;;;;;;5074957;28;20404;-79
2021/11/25 11:20:32;;;;;;;19.63;11.90;;;4.80;99.90;;;;;;5046114;28;20407;-81
2021/11/25 11:23:07;;;;;;;20.20;10.73;;;4.70;99.90;;;;;;5033946;28;20458;-80
2021/11/25 11:25:37;;;;;;;22.80;12.50;;;4.60;99.90;;;;;;5032753;28;20488;-79
2021/11/25 11:28:09;;;;;;;25.43;13.20;;;4.80;99.90;;;;;;5019016;28;20457;-79
2021/11/25 11:30:38;;;;;;;21.85;14.02;;;4.80;99.90;;;;;;4981485;28;20411;-79
2021/11/25 11:33:17;;;;;;;28.17;16.20;;;4.80;99.90;;;;;;5041689;28;20688;-79
2021/11/25 11:35:46;;;;;;;26.10;15.20;;;4.80;99.90;;;;;;5037371;28;20438;-80
2021/11/25 11:38:13;;;;;;;34.47;15.53;;;4.70;99.90;;;;;;5002028;28;20410;-79
2021/11/25 11:40:42;;;;;;;22.07;15.70;;;4.70;99.90;;;;;;5018944;28;20461;-79
2021/11/25 11:43:08;;;;;;;22.20;13.00;;;4.80;99.90;;;;;;5030780;28;20689;-80
2021/11/25 11:45:38;;;;;;;20.73;13.70;;;4.90;99.90;;;;;;4986755;28;20419;-81
2021/11/25 11:48:21;;;;;;;24.77;12.63;;;4.90;99.90;;;;;;5023746;28;20453;-80
2021/11/25 11:50:54;;;;;;;16.50;11.60;;;4.90;99.90;;;;;;4987762;28;20428;-79
2021/11/25 11:53:23;;;;;;;19.33;12.23;;;4.80;99.90;;;;;;4988918;28;20459;-81
2021/11/25 11:55:59;;;;;;;23.70;12.50;;;4.80;99.90;;;;;;5035713;28;20899;-79
2021/11/25 11:58:35;;;;;;;22.13;12.40;;;4.80;99.90;;;;;;5035132;28;20431;-80
2021/11/25 12:01:07;;;;;;;18.40;12.30;;;4.80;99.90;;;;;;5020256;28;20428;-80
2021/11/25 12:03:37;;;;;;;20.57;11.27;;;4.80;99.90;;;;;;5024073;28;20511;-80
2021/11/25 12:06:05;;;;;;;31.43;11.13;;;4.80;99.90;;;;;;5013745;28;20967;-80
2021/11/25 12:08:44;;;;;;;27.60;13.63;;;4.70;99.90;;;;;;5033121;28;20451;-80
2021/11/25 12:11:11;;;;;;;19.87;12.03;;;4.80;99.90;;;;;;5001077;28;20406;-80
2021/11/25 12:14:00;;;;;;;16.50;10.27;;;4.80;99.90;;;;;;5023446;28;20468;-81
2021/11/25 12:16:28;;;;;;;18.93;11.00;;;4.90;99.90;;;;;;5026924;28;20402;-80
2021/11/25 12:18:59;;;;;;;19.97;10.37;;;4.80;99.90;;;;;;5003685;28;20439;-80
2021/11/25 12:21:44;;;;;;;19.00;11.93;;;4.80;99.90;;;;;;5034392;28;20431;-81
2021/11/25 12:24:16;;;;;;;16.93;10.80;;;4.80;99.90;;;;;;5035857;28;20506;-81
2021/11/25 12:27:12;;;;;;;20.37;12.07;;;4.80;99.90;;;;;;5033100;28;20424;-81
2021/11/25 12:29:43;;;;;;;24.50;12.80;;;4.70;99.90;;;;;;5031084;28;20431;-80
2021/11/25 12:32:41;;;;;;;16.23;10.27;;;4.70;99.90;;;;;;5027902;28;20445;-80
2021/11/25 12:35:43;;;;;;;16.20;9.40;;;4.80;99.90;;;;;;5054906;28;20546;-81
2021/11/25 12:38:14;;;;;;;17.80;10.20;;;4.80;99.90;;;;;;5050626;28;20399;-79
2021/11/25 12:40:44;;;;;;;25.17;11.40;;;4.80;99.90;;;;;;5079656;28;20436;-81
2021/11/25 12:43:15;;;;;;;16.33;9.00;;;4.50;99.90;;;;;;5024641;28;21017;-80
2021/11/25 12:45:44;;;;;;;22.87;13.10;;;4.30;99.90;;;;;;5070009;28;20404;-80
2021/11/25 12:48:13;;;;;;;20.17;10.47;;;4.40;99.90;;;;;;5044161;28;20756;-80
2021/11/25 12:50:42;;;;;;;12.40;10.47;;;4.40;99.90;;;;;;5079074;28;20406;-80
2021/11/25 12:53:14;;;;;;;18.53;10.33;;;4.50;99.90;;;;;;5069605;28;20428;-80
2021/11/25 12:55:41;;;;;;;12.83;8.90;;;4.40;99.90;;;;;;5060313;28;20453;-79